AirNav   Air Wisconsin pilot careers
 
 968 users online  

AL88 Ban Farm Airport
Lillian, Alabama, USA

GOING TO LILLIAN?


FAA INFORMATION EFFECTIVE 03 JANUARY 2019

Location

FAA Identifier: AL88
Lat/Long: 30-25-35.7120N / 087-28-14.9260W
30-25.595200N / 087-28.248767W
30.4265867 / -87.4708128
(estimated)
Elevation: 80 ft. / 24 m (estimated)
Variation: 01E (1985)
From city: 3 miles NW of LILLIAN, AL
Time zone: UTC -6 (UTC -5 during Daylight Saving Time)
Zip code: 36530

Airport Operations

Airport use: Private use. Permission required prior to landing
Activation date: 06/1991
Control tower: no
ARTCC: JACKSONVILLE CENTER
FSS: ANNISTON FLIGHT SERVICE STATION
Attendance: CONTINUOUS
Wind indicator: yes
Segmented circle: no

Airport Communications

WX AWOS-3PT at JKA (13 nm SW): 134.525 (251-968-7581)
WX ASOS at PNS (15 nm E): PHONE 850-436-4799

Nearby radio navigation aids

VOR radial/distance  VOR name  Freq  Var
NUNr248/(7.5)SAUFLEY VOR108.8001E
BFMr106/32.2BROOKLEY VORTAC112.8004E

 
NDB name  Hdg/Dist  Freq  Var  ID
PICKENS270/15.132602WPKZ .--. -.- --..

Airport Services

Runway Information

Runway 9/27

Dimensions: 1320 x 95 ft. / 402 x 29 m
Surface: turf
RUNWAY 9  RUNWAY 27
Traffic pattern: rightleft

Airport Ownership and Management from official FAA records

Ownership: Privately-owned
Owner: WILLIAM T. MILES
P.O. BOX 329
LILLIAN, AL 36549
Phone (251) 979-0809
Manager: WILLIAM T. MILES
P.O. BOX 329
LILLIAN, AL 36549
Phone (251) 979-0809

Airport Operational Statistics

Aircraft based on the field: 1
Single engine airplanes: 1
    

Additional Remarks

OWNER DESIRES ARPT NOT BE CHARTED.
DAY VFR ONLY - OWNER ONLY ALLOWED

Instrument Procedures

There are no published instrument procedures at AL88.

Some nearby airports with instrument procedures:

KNPA - Pensacola Naval Air Station/Forrest Sherman Field (9 nm SE)
5R4 - Foley Municipal Airport (12 nm W)
KJKA - Jack Edwards National Airport (13 nm SW)
KPNS - Pensacola International Airport (15 nm E)
KCQF - H L Sonny Callahan Airport (21 nm W)
 
Loc | Ops | Rwys | IFR | FBO | Links
Com | Nav | Svcs | Stats | Notes

Continental Motors
AirBoss

 
Area around AL88 (Ban Farm Airport)
 
Road maps at: MapQuest Bing Google
 
Aerial photo
No photo
 
Sectional chart

 
Airport distance calculator
Flying to Ban Farm Airport? Find the distance to fly.

From to AL88

Sunrise and sunset
Times for 21-Jan-2019
 Local
(UTC-6)
 Zulu
(UTC)
Morning civil twilight06:2112:21
Sunrise06:4712:47
Sunset17:1623:16
Evening civil twilight17:4123:41

Current date and time
Zulu (UTC)  22-Jan-2019 01:12:16
Local (UTC-6)  21-Jan-2019 19:12:16
 
METAR
KNPA 
9nm SE 
220056Z AUTO 00000KT 10SM CLR 05/03 A3033 RMK AO2 SLP272 T00500028 $
KJKA 
13nm SW 
220055Z AUTO 00000KT 10SM CLR 05/M14 A3033 RMK AO2 T00471138
KPNS 
15nm E 
220053Z 04004KT 10SM CLR 09/00 A3033 RMK AO2 SLP274 T00940000
TAF
KNPA 
9nm SE 
2123/2223 VRB06KT 9999 SKC QNH3030INS BECMG 2206/2208 11011KT SCT010 BKN020 OVC030 QNH3028INS BECMG 2209/2211 12011KT 6000 BR SCT005 BKN010 OVC020 QNH3022INS BECMG 2218/2220 12015KT 9999 NSW BKN030 OVC060 QNH3019INS AUTOMATED SENSOR METWATCH 2123 TIL 2211 T05/2203Z T18/2221Z FN00197
KPNS 
15nm E 
211720Z 2118/2218 03009KT P6SM FEW250 FM220900 12008KT P6SM BKN025
NOTAMs
Click for the latest NOTAMs
NOTAMs are issued by the DoD/FAA and will open in a separate window not controlled by AirNav.

 

 
 

Would you like to see your business listed on this page?

 If your business provides an interesting product or service to pilots, flight crews, aircraft, or users of the Ban Farm Airport, you should consider listing it here.  To start the listing process, click on the button below
 
Add a business
 

Other Pages about Ban Farm Airport

Update a link
 
Copyright © AirNav, LLC. All rights reserved. Privacy Policy  Contact